Dothan Regional Airport Dothan US
ICAO: KDHN
IATA: DHN
Category: Medium
Scheduled Services: Yes

Elevation: 401 ft
TransAlt. 18000 ft.

Airport Communications:
CAIRNS APP/DEP:125.4
ATIS:135.72
CTAF:118.4
GND:121.7
VFR ADVSY SVC:118.4
ANNISTON RDO:122.2
TWR:118.4
UNICOM:122.95

KDHN Zoom In..

Runways:

(A) RW 14 length 8499 ft width 150 ft
ILS 110.75 / hdg 138

(B) RW 18 length 5498 ft width 100 ft
---- / hdg 183

(C) RW 32 length 8499 ft width 150 ft
ILS 108.30 / hdg 318

(D) RW 36 length 5498 ft width 100 ft
---- / hdg 3

Location; KDHN
Day. 24 / Time. 08.00 Zulu
* Altimeter: 30.09
* Temperature: 21° c. 69.8°f.
* Wind from: 260° Speed 03 kn.
Dewpoint: 21° c.
Visibility: 8 Statute Miles.
Clouds: Scattered 100 ft.
Clouds: Broken 1300 ft.

KDHN 240800Z AUTO 26003KT 8SM SCT001 BKN013 21/21 A3009 RMK AO2 T02110206


Wind From 260°
Speed 03 kn.

 
 
jpsmedia.com for Web Design SOUNDCLOUD worldairports.se 2018   terms of use